createdAt,value
2018-05-10T00:00:50.641Z,19.87
2018-05-10T00:01:50.653Z,19.84
2018-05-10T00:03:43.783Z,19.83
2018-05-10T00:04:43.776Z,19.66
2018-05-10T00:06:36.690Z,19.77
2018-05-10T00:07:36.712Z,19.78
2018-05-10T00:09:29.644Z,19.77
2018-05-10T00:10:29.650Z,19.68
2018-05-10T00:12:22.564Z,19.73
2018-05-10T00:13:22.587Z,19.73
2018-05-10T00:15:15.520Z,19.63
2018-05-10T00:16:15.530Z,19.56
2018-05-10T00:18:08.441Z,19.56
2018-05-10T00:19:08.470Z,19.65
2018-05-10T00:21:01.397Z,19.55
2018-05-10T00:22:01.404Z,19.58
2018-05-10T00:23:54.331Z,19.55
2018-05-10T00:24:54.338Z,19.50
2018-05-10T00:26:47.248Z,19.46
2018-05-10T00:27:47.272Z,19.41
2018-05-10T00:29:40.205Z,19.47
2018-05-10T00:30:40.216Z,19.37
2018-05-10T00:32:33.124Z,19.33
2018-05-10T00:33:33.146Z,19.25
2018-05-10T00:35:26.076Z,19.21
2018-05-10T00:36:26.083Z,19.25
2018-05-10T00:38:18.996Z,19.22
2018-05-10T00:39:19.020Z,19.21
2018-05-10T00:41:11.952Z,19.26
2018-05-10T00:42:11.955Z,19.26
2018-05-10T00:44:04.884Z,19.31
2018-05-10T00:45:04.895Z,19.31
2018-05-10T00:46:57.807Z,19.14
2018-05-10T00:47:57.832Z,19.10
2018-05-10T00:49:50.760Z,19.07
2018-05-10T00:50:50.766Z,19.07
2018-05-10T00:52:43.680Z,19.13
2018-05-10T00:53:43.703Z,18.98
2018-05-10T00:55:36.631Z,18.98
2018-05-10T00:56:36.649Z,18.98
2018-05-10T00:58:29.552Z,18.90
2018-05-10T00:59:29.572Z,18.81
2018-05-10T01:01:22.505Z,18.90
2018-05-10T01:02:22.512Z,18.88
2018-05-10T01:04:15.441Z,18.90
2018-05-10T01:05:15.445Z,18.87
2018-05-10T01:07:08.363Z,18.90
2018-05-10T01:08:08.388Z,18.87
2018-05-10T01:10:01.323Z,18.80
2018-05-10T01:11:01.332Z,18.87
2018-05-10T01:12:54.237Z,18.75
2018-05-10T01:13:54.261Z,18.75
2018-05-10T01:15:47.193Z,18.75
2018-05-10T01:16:47.193Z,18.69
2018-05-10T01:18:40.107Z,18.65
2018-05-10T01:19:40.130Z,18.69
2018-05-10T01:21:33.066Z,18.62
2018-05-10T01:22:33.068Z,18.57
2018-05-10T01:24:26.041Z,18.55
2018-05-10T01:25:26.004Z,18.47
2018-05-10T01:27:18.913Z,18.42
2018-05-10T01:28:18.937Z,18.35
2018-05-10T01:30:11.888Z,18.41
2018-05-10T01:31:11.870Z,18.41
2018-05-10T01:33:04.778Z,18.33
2018-05-10T01:34:04.803Z,18.29
2018-05-10T01:35:57.732Z,18.33
2018-05-10T01:36:57.737Z,18.32
2018-05-10T01:38:50.648Z,18.25
2018-05-10T01:39:50.671Z,18.23
2018-05-10T01:41:43.599Z,18.18
2018-05-10T01:42:43.603Z,18.15
2018-05-10T01:44:36.534Z,18.12
2018-05-10T01:45:36.541Z,18.00
2018-05-10T01:47:29.448Z,18.03
2018-05-10T01:48:29.472Z,18.10
2018-05-10T01:50:22.402Z,18.07
2018-05-10T01:51:22.406Z,18.08
2018-05-10T01:53:15.317Z,18.14
2018-05-10T01:54:15.340Z,18.10
2018-05-10T01:56:08.270Z,17.95
2018-05-10T01:57:08.280Z,18.00
2018-05-10T01:59:01.186Z,17.95
2018-05-10T02:00:01.209Z,17.84
2018-05-10T02:01:54.140Z,17.82
2018-05-10T02:02:54.145Z,17.79
2018-05-10T02:04:47.078Z,17.81
2018-05-10T02:05:47.079Z,17.75
2018-05-10T02:07:39.990Z,17.72
2018-05-10T02:08:40.013Z,17.74
2018-05-10T02:10:32.941Z,17.77
2018-05-10T02:11:32.945Z,17.71
2018-05-10T02:13:25.855Z,17.77
2018-05-10T02:14:25.878Z,17.75
2018-05-10T02:16:18.809Z,17.79
2018-05-10T02:17:18.811Z,17.77
2018-05-10T02:19:11.719Z,17.71
2018-05-10T02:20:11.742Z,17.77
2018-05-10T02:22:04.670Z,17.75
2018-05-10T02:23:04.674Z,17.71
2018-05-10T02:24:57.609Z,17.77
2018-05-10T02:25:57.617Z,17.78
2018-05-10T02:27:50.527Z,17.70
2018-05-10T02:28:50.549Z,17.75
2018-05-10T02:30:43.483Z,17.77
2018-05-10T02:31:43.491Z,17.66
2018-05-10T02:33:36.397Z,17.63
2018-05-10T02:34:36.521Z,17.72
2018-05-10T02:36:29.427Z,17.81
2018-05-10T02:37:29.355Z,17.71
2018-05-10T02:39:22.264Z,17.84
2018-05-10T02:40:22.291Z,17.82
2018-05-10T02:42:15.216Z,17.72
2018-05-10T02:43:15.221Z,17.72
2018-05-10T02:45:08.275Z,17.77
2018-05-10T02:46:08.156Z,17.75
2018-05-10T02:48:01.077Z,17.70
2018-05-10T02:49:01.088Z,17.71
2018-05-10T02:50:54.021Z,17.77
2018-05-10T02:51:54.023Z,17.74
2018-05-10T02:53:46.932Z,17.77
2018-05-10T02:54:46.958Z,17.66
2018-05-10T02:56:39.883Z,17.64
2018-05-10T02:57:39.890Z,17.64
2018-05-10T02:59:32.797Z,17.63
2018-05-10T03:00:32.822Z,17.63
2018-05-10T03:02:25.752Z,17.43
2018-05-10T03:03:25.756Z,17.49
2018-05-10T03:05:18.686Z,17.34
2018-05-10T03:06:18.688Z,17.31
2018-05-10T03:08:11.603Z,17.22
2018-05-10T03:09:11.630Z,17.23
2018-05-10T03:11:04.551Z,17.31
2018-05-10T03:12:04.560Z,17.30
2018-05-10T03:13:57.465Z,17.25
2018-05-10T03:14:57.489Z,17.34
2018-05-10T03:16:50.413Z,17.30
2018-05-10T03:17:50.419Z,17.30
2018-05-10T03:19:43.327Z,17.22
2018-05-10T03:20:43.351Z,17.19
2018-05-10T03:22:36.283Z,17.15
2018-05-10T03:23:36.284Z,17.08
2018-05-10T03:25:29.210Z,16.98
2018-05-10T03:26:29.215Z,17.00
2018-05-10T03:28:22.125Z,16.97
2018-05-10T03:29:22.147Z,16.94
2018-05-10T03:31:15.072Z,16.93
2018-05-10T03:32:15.076Z,16.85
2018-05-10T03:34:07.986Z,16.86
2018-05-10T03:35:08.007Z,16.89
2018-05-10T03:37:00.936Z,16.88
2018-05-10T03:38:00.943Z,16.91
2018-05-10T03:39:53.850Z,16.82
2018-05-10T03:40:53.871Z,16.76
2018-05-10T03:42:46.798Z,16.91
2018-05-10T03:43:46.801Z,16.93
2018-05-10T03:45:39.738Z,16.89
2018-05-10T03:46:39.735Z,16.86
2018-05-10T03:48:32.648Z,16.96
2018-05-10T03:49:32.670Z,16.98
2018-05-10T03:51:25.595Z,17.06
2018-05-10T03:52:25.601Z,16.91
2018-05-10T03:54:18.508Z,16.97
2018-05-10T03:55:18.531Z,17.06
2018-05-10T03:57:11.460Z,17.15
2018-05-10T03:58:11.460Z,17.15
2018-05-10T04:00:04.369Z,17.31
2018-05-10T04:01:04.446Z,17.33
2018-05-10T04:02:57.332Z,17.41
2018-05-10T04:03:57.325Z,17.40
2018-05-10T04:05:50.267Z,17.44
2018-05-10T04:06:50.267Z,17.44
2018-05-10T04:08:43.185Z,17.64
2018-05-10T04:09:43.208Z,17.70
2018-05-10T04:11:36.136Z,17.77
2018-05-10T04:12:36.138Z,17.81
2018-05-10T04:14:29.049Z,18.02
2018-05-10T04:15:29.128Z,17.95
2018-05-10T04:17:22.000Z,18.21
2018-05-10T04:18:22.006Z,18.12
2018-05-10T04:20:14.920Z,18.36
2018-05-10T04:21:14.937Z,18.50
2018-05-10T04:23:07.867Z,18.62
2018-05-10T04:24:07.951Z,18.75
2018-05-10T04:26:00.799Z,18.95
2018-05-10T04:27:00.805Z,19.07
2018-05-10T04:28:53.716Z,19.23
2018-05-10T04:29:53.789Z,19.21
2018-05-10T04:31:46.668Z,19.29
2018-05-10T04:32:46.674Z,19.29
2018-05-10T04:34:39.586Z,19.33
2018-05-10T04:35:39.618Z,19.47
2018-05-10T04:37:32.540Z,19.41
2018-05-10T04:38:32.615Z,19.50
2018-05-10T04:40:25.464Z,19.50
2018-05-10T04:41:25.568Z,19.56
2018-05-10T04:43:18.412Z,19.73
2018-05-10T04:44:18.419Z,19.73
2018-05-10T04:46:11.352Z,19.86
2018-05-10T04:47:11.361Z,19.86
2018-05-10T04:49:04.267Z,19.96
2018-05-10T04:50:04.292Z,19.94
2018-05-10T04:51:57.226Z,19.95
2018-05-10T04:52:57.231Z,19.88
2018-05-10T04:54:50.197Z,19.95
2018-05-10T04:55:50.169Z,19.98
2018-05-10T04:57:43.118Z,20.02
2018-05-10T04:58:43.109Z,19.98
2018-05-10T05:00:36.017Z,20.17
2018-05-10T05:01:36.143Z,20.02
2018-05-10T05:03:28.981Z,20.02
2018-05-10T05:04:28.980Z,20.06
2018-05-10T05:06:21.915Z,19.99
2018-05-10T05:07:21.926Z,19.96
2018-05-10T05:09:14.835Z,19.77
2018-05-10T05:10:14.868Z,19.56
2018-05-10T05:12:07.794Z,19.39
2018-05-10T05:13:07.799Z,19.33
2018-05-10T05:15:00.715Z,19.21
2018-05-10T05:16:00.746Z,19.19
2018-05-10T05:17:53.674Z,19.13
2018-05-10T05:18:53.678Z,19.31
2018-05-10T05:20:46.590Z,19.36
2018-05-10T05:21:46.616Z,19.31
2018-05-10T05:23:39.547Z,19.19
2018-05-10T05:24:39.555Z,19.19
2018-05-10T05:26:32.512Z,19.07
2018-05-10T05:27:32.492Z,18.80
2018-05-10T05:29:25.430Z,18.66
2018-05-10T05:30:25.438Z,18.82
2018-05-10T05:32:18.364Z,18.84
2018-05-10T05:33:18.371Z,18.78
2018-05-10T05:35:11.286Z,18.52
2018-05-10T05:36:11.317Z,18.54
2018-05-10T05:38:04.240Z,18.51
2018-05-10T05:39:04.249Z,18.66
2018-05-10T05:40:57.232Z,18.82
2018-05-10T05:41:57.186Z,18.87
2018-05-10T05:43:50.117Z,19.06
2018-05-10T05:44:50.123Z,19.16
2018-05-10T05:46:43.055Z,19.21
2018-05-10T05:47:43.061Z,19.22
2018-05-10T05:49:35.978Z,19.22
2018-05-10T05:50:36.007Z,19.33
2018-05-10T05:52:28.937Z,19.44
2018-05-10T05:53:28.942Z,19.56
2018-05-10T05:55:21.857Z,19.41
2018-05-10T05:56:21.887Z,19.41
2018-05-10T05:58:14.812Z,19.32
2018-05-10T05:59:14.820Z,19.13
2018-05-10T06:01:07.733Z,18.82
2018-05-10T06:02:07.758Z,18.80
2018-05-10T06:04:00.691Z,18.26
2018-05-10T06:05:00.700Z,18.27
2018-05-10T06:06:53.639Z,18.26
2018-05-10T06:07:53.641Z,18.11
2018-05-10T06:09:46.551Z,18.26
2018-05-10T06:10:46.580Z,18.23
2018-05-10T06:12:39.505Z,18.27
2018-05-10T06:13:39.511Z,18.27
2018-05-10T06:15:32.501Z,18.18
2018-05-10T06:16:32.455Z,18.33
2018-05-10T06:18:25.376Z,18.29
2018-05-10T06:19:25.422Z,18.36
2018-05-10T06:21:18.297Z,18.37
2018-05-10T06:22:18.321Z,18.30
2018-05-10T06:24:11.250Z,18.23
2018-05-10T06:25:11.487Z,18.25
2018-05-10T06:27:04.209Z,18.27
2018-05-10T06:28:04.194Z,18.18
2018-05-10T06:29:57.107Z,18.32
2018-05-10T06:30:57.132Z,18.23
2018-05-10T06:32:50.062Z,18.27
2018-05-10T06:33:50.081Z,18.14
2018-05-10T06:35:42.981Z,18.12
2018-05-10T06:36:43.004Z,18.23
2018-05-10T06:38:35.932Z,18.32
2018-05-10T06:39:35.939Z,18.39
2018-05-10T06:41:28.943Z,18.57
2018-05-10T06:42:28.879Z,18.80
2018-05-10T06:44:21.804Z,18.81
2018-05-10T06:45:21.816Z,18.81
2018-05-10T06:47:14.745Z,18.87
2018-05-10T06:48:14.755Z,18.94
2018-05-10T06:50:07.678Z,18.75
2018-05-10T06:51:07.684Z,18.81
2018-05-10T06:53:00.770Z,18.91
2018-05-10T06:54:00.777Z,18.99
2018-05-10T06:55:53.693Z,19.13
2018-05-10T06:56:53.717Z,19.18
2018-05-10T06:58:46.658Z,19.14
2018-05-10T06:59:46.740Z,19.25
2018-05-10T07:01:39.575Z,19.54
2018-05-10T07:02:39.600Z,19.77
2018-05-10T07:04:32.540Z,20.17
2018-05-10T07:05:32.544Z,20.14
2018-05-10T07:07:25.490Z,20.32
2018-05-10T07:08:25.487Z,20.29
2018-05-10T07:10:18.398Z,20.52
2018-05-10T07:11:18.429Z,20.61
2018-05-10T07:13:11.366Z,20.92
2018-05-10T07:14:11.373Z,21.01
2018-05-10T07:16:04.289Z,21.03
2018-05-10T07:17:04.320Z,21.10
2018-05-10T07:18:57.253Z,20.92
2018-05-10T07:19:57.265Z,20.92
2018-05-10T07:21:50.177Z,20.97
2018-05-10T07:22:50.208Z,20.85
2018-05-10T07:24:43.146Z,20.58
2018-05-10T07:25:43.152Z,20.79
2018-05-10T07:27:36.071Z,20.76
2018-05-10T07:28:36.098Z,20.89
2018-05-10T07:30:29.034Z,21.01
2018-05-10T07:31:29.046Z,21.07
2018-05-10T07:33:21.981Z,20.97
2018-05-10T07:34:21.989Z,20.80
2018-05-10T07:36:14.906Z,20.76
2018-05-10T07:37:14.934Z,20.72
2018-05-10T07:39:07.871Z,20.62
2018-05-10T07:40:07.880Z,20.42
2018-05-10T07:42:00.830Z,20.52
2018-05-10T07:43:00.827Z,20.59
2018-05-10T07:44:53.768Z,20.70
2018-05-10T07:45:53.772Z,20.69
2018-05-10T07:47:46.686Z,20.85
2018-05-10T07:48:46.716Z,20.82
2018-05-10T07:50:39.653Z,20.92
2018-05-10T07:51:39.660Z,20.94
2018-05-10T07:53:32.596Z,21.16
2018-05-10T07:54:32.608Z,21.22
2018-05-10T07:56:25.522Z,21.31
2018-05-10T07:57:25.553Z,21.42
2018-05-10T07:59:18.497Z,21.64
2018-05-10T08:00:18.497Z,21.64
2018-05-10T08:02:11.450Z,21.80
2018-05-10T08:03:11.444Z,21.68
2018-05-10T08:05:04.378Z,21.61
2018-05-10T08:06:04.388Z,21.59
2018-05-10T08:07:57.306Z,21.64
2018-05-10T08:08:57.335Z,21.65
2018-05-10T08:10:50.271Z,21.64
2018-05-10T08:11:50.280Z,21.59
2018-05-10T08:13:43.226Z,21.67
2018-05-10T08:14:43.235Z,21.75
2018-05-10T08:16:36.158Z,21.79
2018-05-10T08:17:36.185Z,21.71
2018-05-10T08:19:29.120Z,21.65
2018-05-10T08:20:29.129Z,21.50
2018-05-10T08:22:22.045Z,21.25
2018-05-10T08:23:22.076Z,21.24
2018-05-10T08:25:15.010Z,21.14
2018-05-10T08:26:15.021Z,21.21
2018-05-10T08:28:08.113Z,20.99
2018-05-10T08:29:08.141Z,20.99
2018-05-10T08:31:01.077Z,20.95
2018-05-10T08:32:01.089Z,20.99
2018-05-10T08:33:54.026Z,21.09
2018-05-10T08:34:54.033Z,21.12
2018-05-10T08:36:47.065Z,20.47
2018-05-10T08:37:46.983Z,20.42
2018-05-10T08:39:39.910Z,20.28
2018-05-10T08:40:39.918Z,20.23
2018-05-10T08:42:32.833Z,20.01
2018-05-10T08:43:32.863Z,20.06
2018-05-10T08:45:26.289Z,20.13
2018-05-10T08:46:26.296Z,20.28
2018-05-10T08:48:19.211Z,20.20
2018-05-10T08:49:19.237Z,20.43
2018-05-10T08:51:12.178Z,20.57
2018-05-10T08:52:12.185Z,20.58
2018-05-10T08:54:05.121Z,20.72
2018-05-10T08:55:05.131Z,20.70
2018-05-10T08:56:58.047Z,20.85
2018-05-10T08:57:58.075Z,20.91
2018-05-10T08:59:51.086Z,21.27
2018-05-10T09:00:51.019Z,21.22
2018-05-10T09:02:43.933Z,21.16
2018-05-10T09:03:43.963Z,21.09
2018-05-10T09:05:36.897Z,20.98
2018-05-10T09:06:36.906Z,20.88
2018-05-10T09:08:29.822Z,21.03
2018-05-10T09:09:29.853Z,20.99
2018-05-10T09:11:22.782Z,21.31
2018-05-10T09:12:22.797Z,21.28
2018-05-10T09:14:15.734Z,21.42
2018-05-10T09:15:15.740Z,21.44
2018-05-10T09:17:08.658Z,21.32
2018-05-10T09:18:08.691Z,21.42
2018-05-10T09:20:01.627Z,21.62
2018-05-10T09:21:01.654Z,21.80
2018-05-10T09:22:54.552Z,21.64
2018-05-10T09:23:54.584Z,21.54
2018-05-10T09:25:47.521Z,21.31
2018-05-10T09:26:47.529Z,21.01
2018-05-10T09:28:40.450Z,21.10
2018-05-10T09:29:40.478Z,21.19
2018-05-10T09:31:33.440Z,21.47
2018-05-10T09:32:33.424Z,21.58
2018-05-10T09:34:26.382Z,21.72
2018-05-10T09:35:26.391Z,21.59
2018-05-10T09:37:19.316Z,21.64
2018-05-10T09:38:19.343Z,21.54
2018-05-10T09:40:12.289Z,21.56
2018-05-10T09:41:12.289Z,21.64
2018-05-10T09:43:05.234Z,21.96
2018-05-10T09:44:05.236Z,22.02
2018-05-10T09:45:58.172Z,22.17
2018-05-10T09:46:58.183Z,22.18
2018-05-10T09:48:51.099Z,22.24
2018-05-10T09:49:51.128Z,22.24
2018-05-10T09:51:44.065Z,22.28
2018-05-10T09:52:44.150Z,22.33
2018-05-10T09:54:37.011Z,22.47
2018-05-10T09:55:37.026Z,22.54
2018-05-10T09:57:29.941Z,22.28
2018-05-10T09:58:29.969Z,22.24
2018-05-10T10:00:22.907Z,21.92
2018-05-10T10:01:22.917Z,21.80
2018-05-10T10:03:15.835Z,21.65
2018-05-10T10:04:15.865Z,21.62
2018-05-10T10:06:08.842Z,21.71
2018-05-10T10:07:08.812Z,21.71
2018-05-10T10:09:01.731Z,21.64
2018-05-10T10:10:01.758Z,21.65
2018-05-10T10:11:54.694Z,21.62
2018-05-10T10:12:54.704Z,21.59
2018-05-10T10:14:47.640Z,21.52
2018-05-10T10:15:47.757Z,21.43
2018-05-10T10:17:40.638Z,21.38
2018-05-10T10:18:40.622Z,21.31
2018-05-10T10:20:33.561Z,21.29
2018-05-10T10:21:33.579Z,21.32
2018-05-10T10:23:26.500Z,21.31
2018-05-10T10:24:26.525Z,21.32
2018-05-10T10:26:19.478Z,21.27
2018-05-10T10:27:19.555Z,21.21
2018-05-10T10:29:12.400Z,20.97
2018-05-10T10:30:12.471Z,20.85
2018-05-10T10:32:05.360Z,20.61
2018-05-10T10:33:05.373Z,20.52
2018-05-10T10:34:58.302Z,20.16
2018-05-10T10:35:58.317Z,20.10
2018-05-10T10:37:51.243Z,19.94
2018-05-10T10:38:51.331Z,19.84
2018-05-10T10:40:44.199Z,19.68
2018-05-10T10:41:44.212Z,19.54
2018-05-10T10:43:37.119Z,19.58
2018-05-10T10:44:37.146Z,19.50
2018-05-10T10:46:30.083Z,19.46
2018-05-10T10:47:30.095Z,19.41
2018-05-10T10:49:23.034Z,19.26
2018-05-10T10:50:23.036Z,19.41
2018-05-10T10:52:15.957Z,19.21
2018-05-10T10:53:15.965Z,19.32
2018-05-10T10:55:08.897Z,19.28
2018-05-10T10:56:08.919Z,19.36
2018-05-10T10:58:01.816Z,19.36
2018-05-10T10:59:01.843Z,19.28
2018-05-10T11:00:54.790Z,19.36
2018-05-10T11:01:54.891Z,19.29
2018-05-10T11:03:48.255Z,19.28
2018-05-10T11:04:48.326Z,19.21
2018-05-10T11:06:41.245Z,19.13
2018-05-10T11:07:41.282Z,19.11
2018-05-10T11:09:34.220Z,19.08
2018-05-10T11:10:34.337Z,18.99
2018-05-10T11:12:27.251Z,18.99
2018-05-10T11:13:27.223Z,19.10
2018-05-10T11:15:20.264Z,18.98
2018-05-10T11:16:20.159Z,18.81
2018-05-10T11:18:13.081Z,18.76
2018-05-10T11:19:13.134Z,18.70
2018-05-10T11:21:06.080Z,18.41
2018-05-10T11:22:06.070Z,18.36
2018-05-10T11:23:59.039Z,18.44
2018-05-10T11:24:59.032Z,18.41
2018-05-10T11:26:52.987Z,18.48
2018-05-10T11:27:53.004Z,18.50
2018-05-10T11:29:45.928Z,18.51
2018-05-10T11:30:46.078Z,18.57
2018-05-10T11:32:38.890Z,18.72
2018-05-10T11:33:38.947Z,18.75
2018-05-10T11:35:31.919Z,18.75
2018-05-10T11:36:31.864Z,18.66
2018-05-10T11:38:24.752Z,18.57
2018-05-10T11:39:24.795Z,18.58
2018-05-10T11:41:17.736Z,18.52
2018-05-10T11:42:17.740Z,18.52
2018-05-10T11:44:10.662Z,18.52
2018-05-10T11:45:10.692Z,18.55
2018-05-10T11:47:03.679Z,18.54
2018-05-10T11:48:03.635Z,18.50
2018-05-10T11:49:56.621Z,18.30
2018-05-10T11:50:56.589Z,18.23
2018-05-10T11:52:49.561Z,18.14
2018-05-10T11:53:49.588Z,17.92
2018-05-10T11:55:42.521Z,17.96
2018-05-10T11:56:42.511Z,17.92
2018-05-10T11:58:49.965Z,17.79
2018-05-10T11:59:35.485Z,17.79
2018-05-10T12:01:28.426Z,17.84
2018-05-10T12:02:28.574Z,17.75
2018-05-10T12:04:21.839Z,17.77
2018-05-10T12:05:21.868Z,17.77
2018-05-10T12:07:14.815Z,17.75
2018-05-10T12:08:14.821Z,17.82
2018-05-10T12:10:07.865Z,17.66
2018-05-10T12:11:07.775Z,17.72
2018-05-10T12:13:00.749Z,17.72
2018-05-10T12:14:00.860Z,17.66
2018-05-10T12:15:53.701Z,17.44
2018-05-10T12:16:53.672Z,17.66
2018-05-10T12:18:47.578Z,17.43
2018-05-10T12:19:47.609Z,17.44
2018-05-10T12:21:40.570Z,17.48
2018-05-10T12:22:40.592Z,17.72
2018-05-10T12:24:33.564Z,17.72
2018-05-10T12:25:33.609Z,17.72
2018-05-10T12:27:26.517Z,17.82
2018-05-10T12:28:26.520Z,17.95
2018-05-10T12:30:19.458Z,17.95
2018-05-10T12:31:19.459Z,17.75
2018-05-10T12:33:12.389Z,17.84
2018-05-10T12:34:12.399Z,17.97
2018-05-10T12:36:05.331Z,18.03
2018-05-10T12:37:05.400Z,17.92
2018-05-10T12:38:58.249Z,18.00
2018-05-10T12:39:58.284Z,17.99
2018-05-10T12:41:51.206Z,18.26
2018-05-10T12:42:51.218Z,18.26
2018-05-10T12:44:44.132Z,18.37
2018-05-10T12:45:44.262Z,18.41
2018-05-10T12:47:38.078Z,18.50
2018-05-10T12:48:38.114Z,18.35
2018-05-10T12:50:31.022Z,18.42
2018-05-10T12:51:31.026Z,18.52
2018-05-10T12:53:23.957Z,18.50
2018-05-10T12:54:23.972Z,18.69
2018-05-10T12:56:17.026Z,18.76
2018-05-10T12:57:16.908Z,18.81
2018-05-10T12:59:09.822Z,18.84
2018-05-10T13:00:09.843Z,18.75
2018-05-10T13:02:02.776Z,18.80
2018-05-10T13:03:02.786Z,18.47
2018-05-10T13:04:55.714Z,18.51
2018-05-10T13:05:55.726Z,18.45
2018-05-10T13:07:48.665Z,18.41
2018-05-10T13:08:48.670Z,18.23
2018-05-10T13:10:41.588Z,18.11
2018-05-10T13:11:41.624Z,17.93
2018-05-10T13:13:34.557Z,17.86
2018-05-10T13:14:34.577Z,17.97
2018-05-10T13:16:27.497Z,17.96
2018-05-10T13:17:27.572Z,17.93
2018-05-10T13:19:20.445Z,17.97
2018-05-10T13:20:20.461Z,17.99
2018-05-10T13:22:13.396Z,18.00
2018-05-10T13:23:13.405Z,18.00
2018-05-10T13:25:06.320Z,18.27
2018-05-10T13:26:06.344Z,18.37
2018-05-10T13:27:59.272Z,18.41
2018-05-10T13:28:59.344Z,18.54
2018-05-10T13:30:52.192Z,18.62
2018-05-10T13:31:52.229Z,18.48
2018-05-10T13:33:45.151Z,18.35
2018-05-10T13:34:45.223Z,18.50
2018-05-10T13:36:38.084Z,18.33
2018-05-10T13:37:38.092Z,18.47
2018-05-10T13:39:31.041Z,18.35
2018-05-10T13:40:31.042Z,18.42
2018-05-10T13:42:23.976Z,18.66
2018-05-10T13:43:23.983Z,18.44
2018-05-10T13:45:17.902Z,18.48
2018-05-10T13:46:17.923Z,18.30
2018-05-10T13:48:10.858Z,18.48
2018-05-10T13:49:10.859Z,18.44
2018-05-10T13:51:03.775Z,18.52
2018-05-10T13:52:03.797Z,18.75
2018-05-10T13:53:56.735Z,18.72
2018-05-10T13:54:56.737Z,18.78
2018-05-10T13:56:49.709Z,18.76
2018-05-10T13:57:49.676Z,18.82
2018-05-10T13:59:42.720Z,18.62
2018-05-10T14:00:42.739Z,18.66
2018-05-10T14:02:35.685Z,18.45
2018-05-10T14:03:35.687Z,18.60
2018-05-10T14:05:28.600Z,18.81
2018-05-10T14:06:28.629Z,18.76
2018-05-10T14:08:21.557Z,18.88
2018-05-10T14:09:21.571Z,18.81
2018-05-10T14:11:14.476Z,18.92
2018-05-10T14:12:14.504Z,18.94
2018-05-10T14:14:07.437Z,18.92
2018-05-10T14:15:07.448Z,18.94
2018-05-10T14:17:00.378Z,18.84
2018-05-10T14:18:00.391Z,18.66
2018-05-10T14:19:53.301Z,18.72
2018-05-10T14:20:53.330Z,18.52
2018-05-10T14:22:46.259Z,18.57
2018-05-10T14:23:46.270Z,18.54
2018-05-10T14:25:39.404Z,18.55
2018-05-10T14:26:39.431Z,18.45
2018-05-10T14:28:32.363Z,18.36
2018-05-10T14:29:32.575Z,18.30
2018-05-10T14:31:25.291Z,18.33
2018-05-10T14:32:25.331Z,18.33
2018-05-10T14:34:18.242Z,18.25
2018-05-10T14:35:18.247Z,18.37
2018-05-10T14:37:11.178Z,18.32
2018-05-10T14:38:11.184Z,18.23
2018-05-10T14:40:04.098Z,18.23
2018-05-10T14:41:04.121Z,17.89
2018-05-10T14:42:57.092Z,17.99
2018-05-10T14:43:57.071Z,17.99
2018-05-10T14:45:49.970Z,18.10
2018-05-10T14:46:49.996Z,18.15
2018-05-10T14:48:42.929Z,18.32
2018-05-10T14:49:42.932Z,18.39
2018-05-10T14:51:35.843Z,18.51
2018-05-10T14:52:35.867Z,18.62
2018-05-10T14:54:28.800Z,18.62
2018-05-10T14:55:28.815Z,18.54
2018-05-10T14:57:21.751Z,18.54
2018-05-10T14:58:21.754Z,18.65
2018-05-10T15:00:14.713Z,18.47
2018-05-10T15:01:14.728Z,18.37
2018-05-10T15:03:07.634Z,18.51
2018-05-10T15:04:07.683Z,18.47
2018-05-10T15:06:00.547Z,18.36
2018-05-10T15:07:00.574Z,18.26
2018-05-10T15:08:53.510Z,18.33
2018-05-10T15:09:53.551Z,18.20
2018-05-10T15:11:46.429Z,18.32
2018-05-10T15:12:46.454Z,18.30
2018-05-10T15:14:39.405Z,18.29
2018-05-10T15:15:39.500Z,18.30
2018-05-10T15:17:32.424Z,18.15
2018-05-10T15:18:32.347Z,18.02
2018-05-10T15:20:25.260Z,17.89
2018-05-10T15:21:25.292Z,17.81
2018-05-10T15:23:18.219Z,17.74
2018-05-10T15:24:18.226Z,17.82
2018-05-10T15:26:12.138Z,17.89
2018-05-10T15:27:12.166Z,17.87
2018-05-10T15:29:05.093Z,17.82
2018-05-10T15:30:05.099Z,17.79
2018-05-10T15:31:58.009Z,17.75
2018-05-10T15:32:58.041Z,17.82
2018-05-10T15:34:50.965Z,17.78
2018-05-10T15:35:50.971Z,17.77
2018-05-10T15:37:44.100Z,17.77
2018-05-10T15:38:44.106Z,17.79
2018-05-10T15:40:37.063Z,17.71
2018-05-10T15:41:37.059Z,17.70
2018-05-10T15:43:30.000Z,17.74
2018-05-10T15:44:30.002Z,17.77
2018-05-10T15:46:22.905Z,17.71
2018-05-10T15:47:22.937Z,17.74
2018-05-10T15:49:15.888Z,17.78
2018-05-10T15:50:15.894Z,17.70
2018-05-10T15:52:08.802Z,17.66
2018-05-10T15:53:08.829Z,17.64
2018-05-10T15:55:01.756Z,17.66
2018-05-10T15:56:01.762Z,17.71
2018-05-10T15:57:54.738Z,17.64
2018-05-10T15:58:54.696Z,17.64
2018-05-10T16:00:47.613Z,17.63
2018-05-10T16:01:47.631Z,17.63
2018-05-10T16:03:40.586Z,17.51
2018-05-10T16:04:40.580Z,17.66
2018-05-10T16:06:33.590Z,17.71
2018-05-10T16:07:33.568Z,17.72
2018-05-10T16:09:26.546Z,17.75
2018-05-10T16:10:26.538Z,17.66
2018-05-10T16:12:19.508Z,17.63
2018-05-10T16:13:19.491Z,17.66
2018-05-10T16:15:12.419Z,17.58
2018-05-10T16:16:12.425Z,17.49
2018-05-10T16:18:05.359Z,17.46
2018-05-10T16:19:05.367Z,17.46
2018-05-10T16:20:58.277Z,17.56
2018-05-10T16:21:58.305Z,17.58
2018-05-10T16:23:51.267Z,17.58
2018-05-10T16:24:51.329Z,17.55
2018-05-10T16:26:44.169Z,17.44
2018-05-10T16:27:44.267Z,17.46
2018-05-10T16:29:37.121Z,17.40
2018-05-10T16:30:37.126Z,17.41
2018-05-10T16:32:30.035Z,17.46
2018-05-10T16:33:30.073Z,17.33
2018-05-10T16:35:22.991Z,17.28
2018-05-10T16:36:22.992Z,17.46
2018-05-10T16:38:15.928Z,17.40
2018-05-10T16:39:15.937Z,17.43
2018-05-10T16:41:08.850Z,17.44
2018-05-10T16:42:08.934Z,17.48
2018-05-10T16:44:01.827Z,17.46
2018-05-10T16:45:01.840Z,17.44
2018-05-10T16:46:54.722Z,17.46
2018-05-10T16:47:54.745Z,17.46
2018-05-10T16:49:47.672Z,17.51
2018-05-10T16:50:47.682Z,17.59
2018-05-10T16:52:40.714Z,17.75
2018-05-10T16:53:40.741Z,17.71
2018-05-10T16:55:33.669Z,17.78
2018-05-10T16:56:33.676Z,17.77
2018-05-10T16:58:26.627Z,17.75
2018-05-10T16:59:26.629Z,17.71
2018-05-10T17:01:19.545Z,17.77
2018-05-10T17:02:19.567Z,17.78
2018-05-10T17:04:12.497Z,17.82
2018-05-10T17:05:12.508Z,17.89
2018-05-10T17:07:05.416Z,17.92
2018-05-10T17:08:05.446Z,17.84
2018-05-10T17:09:58.376Z,17.75
2018-05-10T17:10:58.378Z,17.77
2018-05-10T17:12:51.289Z,17.72
2018-05-10T17:13:51.317Z,17.70
2018-05-10T17:15:44.241Z,17.81
2018-05-10T17:16:44.250Z,17.77
2018-05-10T17:18:37.261Z,17.79
2018-05-10T17:19:37.179Z,17.86
2018-05-10T17:21:30.127Z,17.95
2018-05-10T17:22:30.121Z,17.92
2018-05-10T17:24:23.045Z,18.03
2018-05-10T17:25:23.051Z,18.10
2018-05-10T17:27:15.965Z,17.99
2018-05-10T17:28:15.987Z,18.12
2018-05-10T17:30:08.918Z,18.23
2018-05-10T17:31:08.921Z,18.26
2018-05-10T17:33:01.833Z,18.37
2018-05-10T17:34:01.857Z,18.47
2018-05-10T17:35:54.787Z,18.50
2018-05-10T17:36:54.796Z,18.45
2018-05-10T17:38:47.722Z,18.57
2018-05-10T17:39:47.733Z,18.60
2018-05-10T17:41:40.716Z,18.54
2018-05-10T17:42:40.663Z,18.72
2018-05-10T17:44:33.594Z,18.63
2018-05-10T17:45:33.601Z,18.69
2018-05-10T17:47:26.511Z,18.70
2018-05-10T17:48:26.537Z,18.69
2018-05-10T17:50:19.476Z,18.66
2018-05-10T17:51:19.477Z,18.66
2018-05-10T17:53:12.383Z,18.67
2018-05-10T17:54:12.408Z,18.62
2018-05-10T17:56:05.343Z,18.52
2018-05-10T17:57:05.352Z,18.47
2018-05-10T17:58:58.278Z,18.47
2018-05-10T17:59:58.288Z,18.47
2018-05-10T18:01:51.195Z,18.44
2018-05-10T18:02:51.219Z,18.48
2018-05-10T18:04:44.150Z,18.37
2018-05-10T18:05:44.155Z,18.32
2018-05-10T18:07:37.064Z,18.30
2018-05-10T18:08:37.089Z,18.29
2018-05-10T18:10:30.033Z,18.26
2018-05-10T18:11:30.054Z,18.33
2018-05-10T18:13:22.943Z,18.32
2018-05-10T18:14:22.974Z,18.18
2018-05-10T18:16:15.899Z,18.25
2018-05-10T18:17:15.905Z,18.27
2018-05-10T18:19:08.833Z,18.20
2018-05-10T18:20:08.841Z,18.25
2018-05-10T18:22:01.750Z,18.20
2018-05-10T18:23:01.777Z,18.26
2018-05-10T18:24:54.709Z,18.27
2018-05-10T18:25:54.719Z,18.25
2018-05-10T18:27:47.623Z,18.15
2018-05-10T18:28:47.648Z,18.18
2018-05-10T18:30:40.577Z,18.00
2018-05-10T18:31:40.581Z,17.97
2018-05-10T18:33:33.489Z,18.08